メインページ
METAR-TAF:

METAR-TAF

空港 :

グアテマラシティ, グアテマラ

ラ・アウロラ国際空港

緯度: 14-35N, 経度: 090-31W, 海抜: 1489m

現時点の気象観測

当レポートは36分前の01:00(UTC)に作成
北/北東の風 6kt
気温 20°C
湿度 83%
気圧 1023 hPa
視程: 7000m
高度1600ftの雲は散在している
高度2200ftの雲はほとんどない, 積乱雲.
高度8000ftの曇り
激しい雷雨, 小雨

METAR: MGGT 240100Z 03006KT 7000 -TSRA SCT016 FEW022CB OVC080 20/17 Q1023 A3021 CB/TS/LTNG S/SW

時間: 19:36 (01:36 UTC)

予報

当レポートは2時間36分前の23:00(UTC)に作成
予報は24日の 00時(UTC)から 24日の 24時(UTC)まで有効
南/南西の風 8kt
視程: 6000m
高度1800ftの千切れ雲あり
高度9000ftの千切れ雲あり
24日の 01時(UTC)から 24日の 05時(UTC)まで一時的に
視程: 8000m
高度2500ftの雲はほとんどない, 積乱雲.
近辺で激しい雷雨, 雨
24日の 03時(UTC)から 24日の 05時(UTC)まで徐々に
の風 10kt
高度1600ftの雲は散在している
24日の 14時(UTC)から 24日の 16時(UTC)まで徐々に
高度1800ftの雲はほとんどない
24日の 20時(UTC)から 24日の 22時(UTC)まで徐々に
の風 8kt
高度2000ftの雲は散在している, 塔状積雲.

TAF: MGGT 232300Z 2400/2424 20008KT 6000 BKN018 BKN090 TX27/2420Z TN17/2412Z TEMPO 2401/2405 8000 VCTSRA FEW025CB BECMG 2403/2405 36010KT SCT016 BECMG 2414/2416 FEW018 BECMG 2420/2422 18008KT SCT020TCU

4,000以上の空港の気象観測と天気予報(METAR報とTAF報)

利用可能な観測所は地図上に黄色い丸と赤い丸で示す。

丸の上にカーソルを重ねると観測所名を参照できる。

次にクリックすると気象観測と天気予報を参照できる。

マップの切り替え:黒色「×」印の緑ボタンをクリックして拡大、「-」印の緑ボタンをクリックして縮小、緑色の三角印をクリックして隣りの地図に切り替え


METAR-TAF: